KCFD/CFD METAR and TAF weather

Enter ICAO airport designator
Station Type Date Time Source
KCFD METAR 2019/12/05 15:35 UTC NOAA

KCFD 051535Z AUTO 15006KT 10SM OVC010 17/11 A3009 RMK AO2 T01650112


Station Type Date Time Source
KCFD Decoded METAR 2019/12/05 15:35 UTC NOAA

Station name not available
Dec 05, 2019 - 10:35 AM EST / 2019.12.05 1535 UTC
Wind: from the SSE (150 degrees) at 7 MPH (6 KT):0
Visibility: 10 mile(s):0
Sky conditions: overcast
Temperature: 61.7 F (16.5 C)
Dew Point: 52.2 F (11.2 C)
Relative Humidity: 70%
Pressure (altimeter): 30.09 in. Hg (1018 hPa)
ob: KCFD 051535Z AUTO 15006KT 10SM OVC010 17/11 A3009 RMK AO2 T01650112
cycle: 15

Station Type Date Time Source
KCFD TAF UTC NOAA

Error!

Example: see airport list